Ocean Grove, NJ

1:30 PM EDT on March 26, 2017 (GMT -0400)
Ocean Grove | | Change Station

Elev 56 ft 40.21 °N, 74.01 °W | Updated 8 seconds ago

Overcast
Overcast
41.9 °F
Feels Like 36 °F
N
10.0
Wind Variable Wind from NE

Today
High -- | Low -- °F
--% Chance of Precip.
Yesterday
High -- | Low -- °F
Precip. -- in
Pressure 30.44 in
Visibility 10.0 miles
Clouds Overcast 1100 ft
Windchill 36 °F
Dew Point 39 °F
Humidity 90%
Rainfall 0.00 in
Snow Depth Not available.
6:49 AM 7:14 PM
Waning Crescent, 3% visible
SPECI KBLM 261722Z AUTO 07010G20KT 10SM OVC011 05/02 A3044 RMK AO2
Pressure 30.44 in
Visibility 10.0 miles
Clouds Overcast 1100 ft
Windchill 36 °F
Dew Point 39 °F
Humidity 90%
Rainfall 0.00 in
Snow Depth Not available.
6:49 AM 7:14 PM
Waning Crescent, 3% visible
SPECI KBLM 261722Z AUTO 07010G20KT 10SM OVC011 05/02 A3044 RMK AO2

Get Severe Weather Alerts

Thanks for signing up!

Be on the lookout for a verification email in your inbox.

You'll start receiving the daily forecast at 8 AM.

×

10-Day Weather Forecast

Almanac

Astronomy

Mar. 26, 2017 Rise Set
Actual Time
Civil Twilight
Nautical Twilight
Astronomical Twilight
Moon
Length of Visible Light
Length of Day
Tomorrow will be .
, % of the Moon is Illuminated

Today's Extremes

State Highs State Lows

Community

WunderPhotos

Upload Photos

1,962,540 photos uploaded!

WunderBlog® & News

Nearby

Air Quality

  Air Quality AQ Index Pollutant
Not available.

Snow Depth

Station Depth Elevation

Earthquake Activity

City Distance Mag. Time & Date
Minimum magnitude displayed is 2.5.

Earthquake Activity

City Distance Mag. Time & Date
Minimum magnitude displayed is 2.5.

Coastal Water Temperatures

Place Temperature

Stations

Nearby Weather Stations

Station Location Temp. Windchill Dew Point Humidity Wind Precip. Elev Updated Type
                   

Watches & Warnings

There are currently no watches in effect.